createdAt,value
2018-12-13T00:01:09.440Z,6.40
2018-12-13T00:03:36.962Z,6.40
2018-12-13T00:06:04.590Z,6.40
2018-12-13T00:08:32.122Z,6.20
2018-12-13T00:10:59.900Z,6.30
2018-12-13T00:13:27.442Z,6.20
2018-12-13T00:15:55.010Z,6.20
2018-12-13T00:18:22.579Z,6.20
2018-12-13T00:20:50.239Z,6.30
2018-12-13T00:23:17.976Z,6.30
2018-12-13T00:25:45.535Z,6.20
2018-12-13T00:28:13.092Z,6.30
2018-12-13T00:30:40.621Z,6.30
2018-12-13T00:33:08.225Z,6.40
2018-12-13T00:35:35.753Z,6.30
2018-12-13T00:38:03.336Z,6.30
2018-12-13T00:40:30.845Z,6.30
2018-12-13T00:42:58.385Z,6.30
2018-12-13T00:45:25.911Z,6.20
2018-12-13T00:47:53.501Z,6.20
2018-12-13T00:50:21.057Z,6.20
2018-12-13T00:52:48.824Z,6.20
2018-12-13T00:55:16.345Z,6.10
2018-12-13T00:57:43.892Z,6.10
2018-12-13T01:00:11.516Z,6.10
2018-12-13T01:02:39.064Z,6.10
2018-12-13T01:05:06.723Z,6.00
2018-12-13T01:07:34.269Z,5.90
2018-12-13T01:10:02.137Z,5.90
2018-12-13T01:12:29.657Z,5.90
2018-12-13T01:14:57.215Z,6.00
2018-12-13T01:17:24.794Z,6.10
2018-12-13T01:19:52.357Z,6.10
2018-12-13T01:22:19.885Z,6.10
2018-12-13T01:24:47.413Z,6.00
2018-12-13T01:27:15.021Z,6.00
2018-12-13T01:29:42.569Z,5.90
2018-12-13T01:32:10.114Z,6.00
2018-12-13T01:34:37.670Z,6.00
2018-12-13T01:37:05.353Z,6.00
2018-12-13T01:39:32.873Z,6.00
2018-12-13T01:42:00.421Z,6.00
2018-12-13T01:44:27.977Z,6.10
2018-12-13T01:46:55.958Z,6.10
2018-12-13T01:49:23.499Z,6.00
2018-12-13T01:51:51.728Z,6.00
2018-12-13T01:54:19.269Z,6.10
2018-12-13T01:56:47.706Z,6.10
2018-12-13T01:59:15.223Z,6.10
2018-12-13T02:01:43.018Z,5.90
2018-12-13T02:04:10.634Z,5.90
2018-12-13T02:06:38.297Z,5.80
2018-12-13T02:09:06.765Z,5.80
2018-12-13T02:11:34.445Z,5.70
2018-12-13T02:14:02.022Z,5.70
2018-12-13T02:16:29.531Z,5.70
2018-12-13T02:18:57.035Z,5.70
2018-12-13T02:21:24.581Z,5.70
2018-12-13T02:23:52.219Z,5.70
2018-12-13T02:26:19.822Z,5.70
2018-12-13T02:28:47.332Z,5.80
2018-12-13T02:31:14.925Z,5.90
2018-12-13T02:33:42.823Z,5.90
2018-12-13T02:36:10.537Z,5.90
2018-12-13T02:38:38.769Z,5.80
2018-12-13T02:41:06.412Z,5.80
2018-12-13T02:43:34.008Z,5.80
2018-12-13T02:46:01.569Z,6.00
2018-12-13T02:48:29.373Z,6.00
2018-12-13T02:50:57.186Z,6.00
2018-12-13T02:53:24.961Z,6.00
2018-12-13T02:55:52.469Z,6.00
2018-12-13T02:58:20.011Z,6.00
2018-12-13T03:00:47.632Z,5.80
2018-12-13T03:03:15.342Z,5.80
2018-12-13T03:05:43.204Z,5.80
2018-12-13T03:08:10.769Z,5.70
2018-12-13T03:10:38.326Z,5.60
2018-12-13T03:13:05.945Z,5.70
2018-12-13T03:15:33.880Z,5.70
2018-12-13T03:18:01.460Z,5.70
2018-12-13T03:20:29.028Z,5.80
2018-12-13T03:22:56.622Z,5.70
2018-12-13T03:25:24.170Z,5.70
2018-12-13T03:27:52.239Z,5.70
2018-12-13T03:30:19.807Z,5.80
2018-12-13T03:32:47.401Z,5.70
2018-12-13T03:35:15.361Z,5.70
2018-12-13T03:37:42.998Z,5.70
2018-12-13T03:40:10.973Z,5.80
2018-12-13T03:42:38.529Z,5.60
2018-12-13T03:45:06.208Z,5.70
2018-12-13T03:47:33.763Z,5.70
2018-12-13T03:50:01.293Z,5.70
2018-12-13T03:52:28.897Z,5.70
2018-12-13T03:54:56.409Z,5.70
2018-12-13T03:57:24.107Z,5.70
2018-12-13T03:59:51.644Z,5.70
2018-12-13T04:02:19.330Z,5.80
2018-12-13T04:04:46.892Z,5.70
2018-12-13T04:07:14.764Z,5.60
2018-12-13T04:09:42.315Z,5.60
2018-12-13T04:12:10.092Z,5.60
2018-12-13T04:14:37.707Z,5.60
2018-12-13T04:17:05.757Z,5.60
2018-12-13T04:19:33.356Z,5.60
2018-12-13T04:22:01.208Z,5.60
2018-12-13T04:24:29.306Z,5.50
2018-12-13T04:26:56.853Z,5.50
2018-12-13T04:29:24.415Z,5.50
2018-12-13T04:31:51.978Z,5.50
2018-12-13T04:34:20.048Z,5.50
2018-12-13T04:36:47.736Z,5.50
2018-12-13T04:39:15.503Z,5.50
2018-12-13T04:41:43.700Z,5.60
2018-12-13T04:44:11.308Z,5.60
2018-12-13T04:46:38.868Z,5.60
2018-12-13T04:49:06.390Z,5.60
2018-12-13T04:51:33.977Z,5.60
2018-12-13T04:54:01.501Z,5.50
2018-12-13T04:56:29.040Z,5.30
2018-12-13T04:58:57.933Z,5.40
2018-12-13T05:01:25.595Z,5.50
2018-12-13T05:03:53.149Z,5.50
2018-12-13T05:06:20.897Z,5.30
2018-12-13T05:08:48.497Z,5.30
2018-12-13T05:11:16.057Z,5.30
2018-12-13T05:13:43.573Z,5.40
2018-12-13T05:16:11.247Z,5.40
2018-12-13T05:18:38.777Z,5.40
2018-12-13T05:21:06.358Z,5.20
2018-12-13T05:23:33.994Z,5.20
2018-12-13T05:26:01.605Z,5.10
2018-12-13T05:28:29.189Z,5.20
2018-12-13T05:30:56.742Z,5.30
2018-12-13T05:33:24.336Z,5.40
2018-12-13T05:35:51.869Z,5.40
2018-12-13T05:38:19.453Z,5.40
2018-12-13T05:40:46.968Z,5.40
2018-12-13T05:43:14.549Z,5.30
2018-12-13T05:45:42.114Z,5.30
2018-12-13T05:48:09.832Z,5.30
2018-12-13T05:50:37.362Z,5.30
2018-12-13T05:53:05.049Z,5.20
2018-12-13T05:55:32.880Z,5.20
2018-12-13T05:58:00.509Z,5.20
2018-12-13T06:00:28.089Z,5.20
2018-12-13T06:02:55.647Z,5.30
2018-12-13T06:05:23.212Z,5.40
2018-12-13T06:07:54.792Z,5.30
2018-12-13T06:10:20.582Z,5.30
2018-12-13T06:12:48.193Z,5.40
2018-12-13T06:15:15.713Z,5.40
2018-12-13T06:17:43.348Z,5.40
2018-12-13T06:20:10.908Z,5.30
2018-12-13T06:22:38.430Z,5.40
2018-12-13T06:25:06.024Z,5.50
2018-12-13T06:27:33.864Z,5.40
2018-12-13T06:30:07.266Z,5.50
2018-12-13T06:32:31.125Z,5.50
2018-12-13T06:34:58.679Z,5.50
2018-12-13T06:37:26.842Z,5.50
2018-12-13T06:39:54.699Z,5.50
2018-12-13T06:42:22.257Z,5.40
2018-12-13T06:44:49.949Z,5.30
2018-12-13T06:47:18.942Z,5.30
2018-12-13T06:49:46.550Z,5.30
2018-12-13T06:52:14.156Z,5.20
2018-12-13T06:54:41.689Z,5.30
2018-12-13T06:57:09.251Z,5.30
2018-12-13T06:59:36.898Z,5.30
2018-12-13T07:02:05.165Z,5.20
2018-12-13T07:04:32.858Z,5.20
2018-12-13T07:07:00.965Z,5.20
2018-12-13T07:09:28.559Z,5.00
2018-12-13T07:11:56.296Z,5.10
2018-12-13T07:14:23.848Z,5.20
2018-12-13T07:16:52.133Z,5.10
2018-12-13T07:19:19.823Z,5.10
2018-12-13T07:21:47.355Z,5.20
2018-12-13T07:24:16.956Z,5.10
2018-12-13T07:26:45.376Z,5.10
2018-12-13T07:29:13.061Z,5.20
2018-12-13T07:31:40.741Z,5.20
2018-12-13T07:34:08.566Z,5.20
2018-12-13T07:36:36.244Z,5.20
2018-12-13T07:39:07.839Z,5.20
2018-12-13T07:41:35.578Z,5.20
2018-12-13T07:44:03.314Z,5.00
2018-12-13T07:46:31.824Z,5.00
2018-12-13T07:48:59.513Z,5.00
2018-12-13T07:51:27.440Z,5.00
2018-12-13T07:53:55.573Z,5.00
2018-12-13T07:56:23.098Z,5.00
2018-12-13T07:58:51.062Z,5.10
2018-12-13T08:01:18.697Z,5.00
2018-12-13T08:03:46.311Z,5.00
2018-12-13T08:06:14.300Z,4.90
2018-12-13T08:08:41.903Z,5.00
2018-12-13T08:11:09.477Z,5.00
2018-12-13T08:13:37.032Z,5.10
2018-12-13T08:16:04.582Z,5.10
2018-12-13T08:18:32.137Z,5.00
2018-12-13T08:20:59.909Z,5.10
2018-12-13T08:23:27.472Z,5.10
2018-12-13T08:25:55.555Z,5.30
2018-12-13T08:28:23.076Z,5.20
2018-12-13T08:30:50.795Z,5.10
2018-12-13T08:33:18.421Z,5.00
2018-12-13T08:35:45.994Z,5.00
2018-12-13T08:38:13.875Z,5.00
2018-12-13T08:40:41.576Z,5.10
2018-12-13T08:43:09.108Z,5.20
2018-12-13T08:45:36.691Z,5.30
2018-12-13T08:48:04.247Z,5.30
2018-12-13T08:50:32.084Z,5.30
2018-12-13T08:52:59.825Z,5.40
2018-12-13T08:55:27.359Z,5.40
2018-12-13T08:57:56.211Z,5.40
2018-12-13T09:00:23.993Z,5.50
2018-12-13T09:02:51.641Z,5.40
2018-12-13T09:05:19.301Z,5.50
2018-12-13T09:07:46.827Z,5.40
2018-12-13T09:10:15.026Z,5.40
2018-12-13T09:12:43.216Z,5.30
2018-12-13T09:15:10.943Z,5.30
2018-12-13T09:17:39.345Z,5.20
2018-12-13T09:20:07.167Z,5.30
2018-12-13T09:22:34.694Z,5.40
2018-12-13T09:25:02.272Z,5.50
2018-12-13T09:27:29.857Z,5.50
2018-12-13T09:29:57.891Z,5.40
2018-12-13T09:32:26.429Z,5.30
2018-12-13T09:34:53.987Z,5.20
2018-12-13T09:37:23.084Z,5.20
2018-12-13T09:39:51.008Z,5.30
2018-12-13T09:42:18.564Z,5.20
2018-12-13T09:44:46.283Z,5.10
2018-12-13T09:47:13.845Z,5.20
2018-12-13T09:49:41.405Z,5.20
2018-12-13T09:52:09.198Z,5.20
2018-12-13T09:54:36.804Z,5.20
2018-12-13T09:57:05.219Z,5.10
2018-12-13T09:59:33.207Z,5.10
2018-12-13T10:02:01.874Z,5.20
2018-12-13T10:04:29.519Z,5.30
2018-12-13T10:06:57.057Z,5.30
2018-12-13T10:09:24.617Z,5.40
2018-12-13T10:11:52.145Z,5.40
2018-12-13T10:14:19.951Z,5.20
2018-12-13T10:16:47.845Z,5.10
2018-12-13T10:19:15.427Z,5.10
2018-12-13T10:21:43.398Z,5.10
2018-12-13T10:24:11.186Z,5.10
2018-12-13T10:26:39.007Z,5.10
2018-12-13T10:29:06.544Z,5.10
2018-12-13T10:31:34.178Z,5.10
2018-12-13T10:34:01.760Z,5.00
2018-12-13T10:36:29.478Z,5.10
2018-12-13T10:38:57.082Z,5.20
2018-12-13T10:41:24.622Z,5.10
2018-12-13T10:43:52.306Z,5.00
2018-12-13T10:46:19.849Z,5.00
2018-12-13T10:48:47.458Z,5.20
2018-12-13T10:51:15.601Z,5.20
2018-12-13T10:53:43.212Z,5.20
2018-12-13T10:56:10.760Z,5.20
2018-12-13T10:58:38.626Z,5.10
2018-12-13T11:01:12.223Z,5.10
2018-12-13T11:03:39.801Z,5.10
2018-12-13T11:06:07.447Z,5.00
2018-12-13T11:08:35.054Z,5.00
2018-12-13T11:11:02.633Z,5.10
2018-12-13T11:13:30.300Z,5.10
2018-12-13T11:15:57.826Z,5.10
2018-12-13T11:18:25.378Z,5.20
2018-12-13T11:20:54.033Z,5.20
2018-12-13T11:23:21.593Z,5.20
2018-12-13T11:25:49.228Z,5.20
2018-12-13T11:28:41.114Z,5.00
2018-12-13T11:31:09.467Z,4.90
2018-12-13T11:33:37.049Z,4.90
2018-12-13T11:36:04.587Z,4.90
2018-12-13T11:38:32.276Z,4.90
2018-12-13T11:40:59.810Z,5.00
2018-12-13T11:43:27.577Z,5.00
2018-12-13T11:45:55.154Z,5.00
2018-12-13T11:48:22.991Z,5.10
2018-12-13T11:50:50.795Z,5.20
2018-12-13T11:53:19.315Z,5.20
2018-12-13T11:55:46.994Z,5.20
2018-12-13T11:58:14.669Z,5.20
2018-12-13T12:00:42.230Z,5.20
2018-12-13T12:03:10.609Z,5.20
2018-12-13T12:05:38.173Z,5.10
2018-12-13T12:08:06.026Z,5.00
2018-12-13T12:10:33.571Z,4.90
2018-12-13T12:13:01.312Z,5.10
2018-12-13T12:15:29.069Z,5.00
2018-12-13T12:17:56.621Z,5.00
2018-12-13T12:20:24.882Z,5.00
2018-12-13T12:22:52.497Z,5.10
2018-12-13T12:25:20.520Z,5.10
2018-12-13T12:27:48.117Z,5.10
2018-12-13T12:30:15.821Z,5.20
2018-12-13T12:32:43.353Z,5.10
2018-12-13T12:35:10.926Z,5.10
2018-12-13T12:37:38.891Z,5.00
2018-12-13T12:40:07.991Z,4.90
2018-12-13T12:42:35.640Z,5.00
2018-12-13T12:45:04.178Z,5.00
2018-12-13T12:47:32.616Z,5.10
2018-12-13T12:50:00.181Z,5.10
2018-12-13T12:52:27.820Z,5.00
2018-12-13T12:54:55.400Z,5.10
2018-12-13T12:57:23.047Z,5.20
2018-12-13T12:59:50.944Z,5.20
2018-12-13T13:02:18.761Z,5.10
2018-12-13T13:04:46.570Z,5.00
2018-12-13T13:07:14.141Z,5.00
2018-12-13T13:09:43.016Z,5.00
2018-12-13T13:12:11.044Z,5.00
2018-12-13T13:14:38.723Z,5.00
2018-12-13T13:17:06.462Z,5.00
2018-12-13T13:19:34.090Z,5.00
2018-12-13T13:22:02.833Z,5.10
2018-12-13T13:24:30.757Z,5.20
2018-12-13T13:26:58.306Z,5.20
2018-12-13T13:29:25.952Z,5.20
2018-12-13T13:31:53.715Z,5.20
2018-12-13T13:34:21.563Z,5.20
2018-12-13T13:36:49.140Z,5.30
2018-12-13T13:39:16.734Z,5.30
2018-12-13T13:41:44.277Z,5.20
2018-12-13T13:44:12.357Z,5.30
2018-12-13T13:46:40.017Z,5.20
2018-12-13T13:49:07.609Z,5.20
2018-12-13T13:51:35.271Z,5.40
2018-12-13T13:54:02.857Z,5.30
2018-12-13T13:56:30.869Z,5.30
2018-12-13T13:58:58.935Z,5.30
2018-12-13T14:01:26.511Z,5.30
2018-12-13T14:03:59.269Z,5.40
2018-12-13T14:06:26.861Z,5.40
2018-12-13T14:08:54.371Z,5.60
2018-12-13T14:11:21.972Z,5.60
2018-12-13T14:13:50.328Z,5.60
2018-12-13T14:16:17.965Z,5.60
2018-12-13T14:18:45.916Z,5.60
2018-12-13T14:21:14.125Z,5.60
2018-12-13T14:23:41.668Z,5.50
2018-12-13T14:26:09.254Z,5.50
2018-12-13T14:28:36.770Z,5.40
2018-12-13T14:31:04.343Z,5.50
2018-12-13T14:33:33.161Z,5.60
2018-12-13T14:36:00.782Z,5.70
2018-12-13T14:38:28.556Z,5.70
2018-12-13T14:40:56.760Z,5.60
2018-12-13T14:43:24.533Z,5.40
2018-12-13T14:45:52.087Z,5.50
2018-12-13T14:48:20.335Z,5.50
2018-12-13T14:50:47.885Z,5.50
2018-12-13T14:53:16.820Z,5.50
2018-12-13T14:55:44.586Z,5.60
2018-12-13T14:58:12.917Z,5.60
2018-12-13T15:00:41.126Z,5.70
2018-12-13T15:03:09.195Z,5.70
2018-12-13T15:05:37.174Z,5.70
2018-12-13T15:08:05.052Z,5.60
2018-12-13T15:10:32.570Z,5.60
2018-12-13T15:13:00.141Z,5.60
2018-12-13T15:15:27.814Z,5.50
2018-12-13T15:17:56.302Z,5.70
2018-12-13T15:20:24.007Z,5.70
2018-12-13T15:22:51.672Z,5.80
2018-12-13T15:25:19.281Z,5.70
2018-12-13T15:27:47.507Z,5.70
2018-12-13T15:30:15.131Z,5.70
2018-12-13T15:32:42.693Z,5.70
2018-12-13T15:35:10.422Z,5.70
2018-12-13T15:37:38.291Z,5.80
2018-12-13T15:40:07.268Z,5.90
2018-12-13T15:42:36.756Z,5.90
2018-12-13T15:45:06.311Z,5.80
2018-12-13T15:47:33.910Z,5.80
2018-12-13T15:50:01.936Z,5.80
2018-12-13T15:52:29.611Z,5.70
2018-12-13T15:54:57.189Z,5.70
2018-12-13T15:57:24.839Z,5.70
2018-12-13T15:59:52.414Z,5.70
2018-12-13T16:02:20.403Z,5.70
2018-12-13T16:04:48.126Z,5.70
2018-12-13T16:07:16.629Z,5.70
2018-12-13T16:09:44.181Z,5.70
2018-12-13T16:12:11.855Z,5.60
2018-12-13T16:14:40.303Z,5.60
2018-12-13T16:17:07.861Z,5.70
2018-12-13T16:19:35.663Z,5.80
2018-12-13T16:22:04.805Z,5.80
2018-12-13T16:24:32.353Z,5.80
2018-12-13T16:27:00.027Z,5.80
2018-12-13T16:29:28.893Z,5.80
2018-12-13T16:31:56.610Z,5.80
2018-12-13T16:34:25.009Z,5.90
2018-12-13T16:36:53.178Z,5.90
2018-12-13T16:39:22.182Z,5.90
2018-12-13T16:41:50.422Z,5.80
2018-12-13T16:44:17.957Z,5.80
2018-12-13T16:46:46.457Z,5.80
2018-12-13T16:49:14.015Z,5.80
2018-12-13T16:51:41.561Z,5.90
2018-12-13T16:54:09.259Z,5.80
2018-12-13T16:56:37.515Z,5.80
2018-12-13T16:59:05.249Z,5.70
2018-12-13T17:01:33.354Z,5.60
2018-12-13T17:04:00.931Z,5.70
2018-12-13T17:06:29.007Z,5.70
2018-12-13T17:08:56.869Z,5.60
2018-12-13T17:11:24.836Z,5.60
2018-12-13T17:13:52.449Z,5.50
2018-12-13T17:16:20.061Z,5.50
2018-12-13T17:18:47.623Z,5.50
2018-12-13T17:21:15.153Z,5.50
2018-12-13T17:23:42.723Z,5.40
2018-12-13T17:26:10.292Z,5.30
2018-12-13T17:28:37.864Z,5.40
2018-12-13T17:31:05.387Z,5.50
2018-12-13T17:33:33.091Z,5.40
2018-12-13T17:36:00.657Z,3.60
2018-12-13T17:38:28.221Z,5.50
2018-12-13T17:40:55.761Z,5.60
2018-12-13T17:43:23.562Z,5.60
2018-12-13T17:45:52.126Z,5.50
2018-12-13T17:48:19.685Z,5.40
2018-12-13T17:50:47.252Z,5.50
2018-12-13T17:53:14.858Z,5.50
2018-12-13T17:55:42.637Z,5.50
2018-12-13T17:58:10.169Z,5.40
2018-12-13T18:00:37.793Z,5.40
2018-12-13T18:03:05.529Z,5.50
2018-12-13T18:05:33.206Z,6.00
2018-12-13T18:08:00.746Z,5.40
2018-12-13T18:10:29.496Z,5.60
2018-12-13T18:12:57.547Z,5.60
2018-12-13T18:15:25.196Z,5.50
2018-12-13T18:17:52.947Z,5.40
2018-12-13T18:20:20.719Z,5.50
2018-12-13T18:22:48.425Z,5.40
2018-12-13T18:25:16.057Z,5.30
2018-12-13T18:27:44.994Z,5.30
2018-12-13T18:30:12.836Z,5.20
2018-12-13T18:32:40.394Z,5.20
2018-12-13T18:35:07.933Z,5.30
2018-12-13T18:37:35.606Z,5.40
2018-12-13T18:40:03.693Z,5.40
2018-12-13T18:42:31.285Z,5.40
2018-12-13T18:44:58.833Z,5.30
2018-12-13T18:47:26.441Z,5.40
2018-12-13T18:49:54.466Z,5.40
2018-12-13T18:52:22.021Z,5.40
2018-12-13T18:54:49.826Z,5.40
2018-12-13T18:57:17.688Z,5.40
2018-12-13T18:59:45.243Z,5.40
2018-12-13T19:02:13.739Z,5.40
2018-12-13T19:04:41.511Z,5.40
2018-12-13T19:07:09.113Z,5.50
2018-12-13T19:09:36.719Z,5.40
2018-12-13T19:12:04.297Z,5.50
2018-12-13T19:14:31.810Z,5.40
2018-12-13T19:16:59.403Z,5.40
2018-12-13T19:19:26.997Z,5.40
2018-12-13T19:21:54.538Z,5.30
2018-12-13T19:24:22.143Z,5.30
2018-12-13T19:26:49.659Z,5.20
2018-12-13T19:29:17.829Z,5.30
2018-12-13T19:31:45.395Z,5.30
2018-12-13T19:34:12.912Z,5.30
2018-12-13T19:36:40.449Z,5.30
2018-12-13T19:39:08.030Z,5.20
2018-12-13T19:41:35.634Z,5.30
2018-12-13T19:44:03.230Z,5.20
2018-12-13T19:46:30.918Z,5.20
2018-12-13T19:48:58.598Z,5.10
2018-12-13T19:51:26.252Z,5.10
2018-12-13T19:53:53.897Z,5.20
2018-12-13T19:56:21.460Z,5.30
2018-12-13T19:58:49.711Z,5.30
2018-12-13T20:01:17.314Z,5.30
2018-12-13T20:03:44.937Z,5.10
2018-12-13T20:06:12.514Z,5.20
2018-12-13T20:08:40.070Z,5.20
2018-12-13T20:11:07.644Z,5.30
2018-12-13T20:13:36.921Z,5.30
2018-12-13T20:16:04.520Z,5.30
2018-12-13T20:18:32.080Z,5.30
2018-12-13T20:20:59.885Z,5.20
2018-12-13T20:23:27.493Z,5.10
2018-12-13T20:25:55.185Z,5.20
2018-12-13T20:28:23.154Z,5.20
2018-12-13T20:30:50.781Z,5.20
2018-12-13T20:33:18.640Z,5.10
2018-12-13T20:35:46.296Z,5.10
2018-12-13T20:38:13.910Z,5.00
2018-12-13T20:40:41.472Z,4.90
2018-12-13T20:43:09.011Z,4.90
2018-12-13T20:45:37.386Z,5.00
2018-12-13T20:48:04.948Z,5.10
2018-12-13T20:50:32.719Z,5.10
2018-12-13T20:53:00.374Z,5.10
2018-12-13T20:55:27.966Z,5.00
2018-12-13T20:57:55.491Z,5.10
2018-12-13T21:00:23.132Z,5.20
2018-12-13T21:02:50.685Z,5.00
2018-12-13T21:05:18.227Z,5.10
2018-12-13T21:07:46.909Z,5.10
2018-12-13T21:10:14.765Z,5.10
2018-12-13T21:12:42.298Z,5.20
2018-12-13T21:15:10.581Z,5.20
2018-12-13T21:17:38.169Z,5.20
2018-12-13T21:20:06.705Z,5.20
2018-12-13T21:22:34.268Z,5.10
2018-12-13T21:25:01.824Z,5.00
2018-12-13T21:27:29.593Z,5.00
2018-12-13T21:29:57.967Z,5.10
2018-12-13T21:32:25.692Z,5.10
2018-12-13T21:34:53.306Z,5.10
2018-12-13T21:37:20.957Z,5.20
2018-12-13T21:39:48.565Z,5.20
2018-12-13T21:42:16.139Z,5.20
2018-12-13T21:44:44.559Z,5.20
2018-12-13T21:47:12.326Z,5.20
2018-12-13T21:49:39.938Z,5.20
2018-12-13T21:52:07.649Z,5.20
2018-12-13T21:54:35.205Z,5.20
2018-12-13T21:57:04.005Z,5.20
2018-12-13T21:59:31.773Z,5.20
2018-12-13T22:01:59.609Z,5.20
2018-12-13T22:04:27.173Z,5.20
2018-12-13T22:06:54.873Z,5.10
2018-12-13T22:09:22.494Z,5.20
2018-12-13T22:11:50.156Z,5.20
2018-12-13T22:14:17.714Z,5.20
2018-12-13T22:16:45.385Z,5.30
2018-12-13T22:19:12.970Z,5.40
2018-12-13T22:21:40.574Z,5.30
2018-12-13T22:24:08.105Z,5.30
2018-12-13T22:26:35.625Z,5.30
2018-12-13T22:29:03.229Z,5.30
2018-12-13T22:31:30.855Z,5.30
2018-12-13T22:33:58.495Z,5.30
2018-12-13T22:36:26.079Z,5.20
2018-12-13T22:38:53.658Z,5.30
2018-12-13T22:41:26.514Z,5.20
2018-12-13T22:43:54.265Z,5.10
2018-12-13T22:46:21.983Z,5.20
2018-12-13T22:48:49.567Z,5.20
2018-12-13T22:51:17.241Z,5.20
2018-12-13T22:53:44.820Z,5.20
2018-12-13T22:56:12.362Z,5.30
2018-12-13T22:58:39.879Z,5.40
2018-12-13T23:01:07.437Z,5.30
2018-12-13T23:03:34.997Z,5.20
2018-12-13T23:06:02.563Z,5.20
2018-12-13T23:08:30.096Z,5.30
2018-12-13T23:10:58.051Z,5.20
2018-12-13T23:13:25.577Z,5.20
2018-12-13T23:15:53.341Z,5.20
2018-12-13T23:18:20.919Z,5.10
2018-12-13T23:20:48.449Z,5.10
2018-12-13T23:23:16.037Z,5.20
2018-12-13T23:25:43.805Z,5.10
2018-12-13T23:28:11.521Z,5.00
2018-12-13T23:30:39.047Z,5.10
2018-12-13T23:33:06.818Z,5.00
2018-12-13T23:35:34.371Z,5.10
2018-12-13T23:38:02.031Z,5.10
2018-12-13T23:40:29.618Z,5.10
2018-12-13T23:42:57.244Z,5.10
2018-12-13T23:45:24.814Z,5.10
2018-12-13T23:47:52.386Z,5.20
2018-12-13T23:50:20.249Z,5.20
2018-12-13T23:52:47.815Z,5.20
2018-12-13T23:55:15.846Z,5.10
2018-12-13T23:57:43.503Z,5.10
